Time;durP1;ratioP1;P1;durP2;ratioP2;P2;SDS_P1;SDS_P2;PMS_P1;PMS_P2;Temp;Humidity;BMP_temperature;BMP_pressure;BME280_temperature;BME280_humidity;BME280_pressure;Samples;Min_cycle;Max_cycle;Signal;HPM_P1;HPM_P2
2021/07/31 00:00:15;;;;;;;2.83;1.40;;;;;;;22.28;61.22;100767.41;4950421;29;20035;-68
2021/07/31 00:02:40;;;;;;;1.80;1.30;;;;;;;22.28;61.20;100777.25;4950511;29;20580;-68
2021/07/31 00:05:07;;;;;;;2.45;1.60;;;;;;;22.27;61.19;100770.28;4950946;29;20056;-67
2021/07/31 00:07:33;;;;;;;2.10;1.40;;;;;;;22.27;61.20;100772.97;4950414;29;20500;-68
2021/07/31 00:09:58;;;;;;;2.67;1.50;;;;;;;22.26;61.28;100774.81;4950070;29;20027;-68
2021/07/31 00:12:24;;;;;;;2.38;1.40;;;;;;;22.26;61.15;100780.16;4950895;29;20031;-68
2021/07/31 00:14:49;;;;;;;2.38;1.50;;;;;;;22.26;61.23;100780.16;4951277;29;20039;-68
2021/07/31 00:17:15;;;;;;;2.10;1.50;;;;;;;22.26;61.34;100780.16;4933162;29;20081;-68
2021/07/31 00:19:40;;;;;;;2.70;1.35;;;;;;;22.25;61.36;100778.53;4950252;29;20113;-68
2021/07/31 00:22:06;;;;;;;2.80;1.40;;;;;;;22.26;61.03;100780.16;4949658;28;20035;-68
2021/07/31 00:24:32;;;;;;;2.70;1.60;;;;;;;22.26;61.24;100784.69;4948820;29;20393;-71
2021/07/31 00:26:57;;;;;;;2.13;1.45;;;;;;;22.25;61.22;100783.88;4951246;29;20401;-68
2021/07/31 00:29:23;;;;;;;2.53;1.30;;;;;;;22.25;61.31;100780.34;4950763;29;20059;-68
2021/07/31 00:31:48;;;;;;;2.08;1.38;;;;;;;22.25;61.27;100783.88;4950963;29;20121;-68
2021/07/31 00:34:14;;;;;;;1.63;1.30;;;;;;;22.25;60.93;100788.34;4933092;29;20046;-68
2021/07/31 00:36:39;;;;;;;2.55;1.50;;;;;;;22.25;60.82;100783.88;4951035;29;20035;-68
2021/07/31 00:39:05;;;;;;;2.17;1.25;;;;;;;22.24;61.06;100786.72;4932255;29;20039;-68
2021/07/31 00:41:30;;;;;;;2.50;1.50;;;;;;;22.25;60.92;100780.34;4950758;28;20389;-68
2021/07/31 00:43:56;;;;;;;2.30;1.50;;;;;;;22.24;60.84;100781.38;4950563;29;20038;-68
2021/07/31 00:46:21;;;;;;;2.85;1.50;;;;;;;22.22;61.17;100781.59;4948841;29;20429;-68
2021/07/31 00:48:48;;;;;;;2.85;1.40;;;;;;;22.24;60.84;100789.41;4933026;29;20039;-68
2021/07/31 00:51:15;;;;;;;1.95;1.25;;;;;;;22.23;61.25;100785.09;4948491;29;20047;-68
2021/07/31 00:53:42;;;;;;;3.03;1.17;;;;;;;22.24;61.05;100792.06;4949552;28;20039;-68
2021/07/31 00:56:07;;;;;;;2.25;1.30;;;;;;;22.23;60.98;100785.91;4950866;29;20035;-68
2021/07/31 00:58:34;;;;;;;1.83;1.23;;;;;;;22.23;61.46;100785.09;4950343;29;20105;-68
2021/07/31 01:01:00;;;;;;;2.05;1.30;;;;;;;22.23;61.15;100785.09;4950228;29;20035;-68
2021/07/31 01:03:25;;;;;;;1.73;1.13;;;;;;;22.23;61.01;100787.75;4949991;29;20038;-68
2021/07/31 01:05:51;;;;;;;1.77;1.25;;;;;;;22.23;61.26;100785.09;4950896;29;20103;-68
2021/07/31 01:08:16;;;;;;;1.80;1.17;;;;;;;22.22;61.48;100792.28;4949745;29;20031;-67
2021/07/31 01:10:42;;;;;;;2.15;1.30;;;;;;;22.23;61.25;100790.44;4949542;29;20070;-68
2021/07/31 01:13:08;;;;;;;2.38;1.40;;;;;;;22.22;61.43;100783.44;4950441;29;20085;-68
2021/07/31 01:15:34;;;;;;;2.05;1.40;;;;;;;22.21;61.55;100787.97;4950399;28;20358;-67
2021/07/31 01:17:59;;;;;;;2.55;1.40;;;;;;;22.22;61.26;100786.13;4950447;29;20130;-68
2021/07/31 01:20:25;;;;;;;2.78;1.40;;;;;;;22.22;61.31;100781.59;4950672;29;20039;-68
2021/07/31 01:22:50;;;;;;;2.28;1.20;;;;;;;22.22;61.50;100786.94;4932538;29;20051;-68
2021/07/31 01:25:16;;;;;;;2.22;1.27;;;;;;;22.22;61.49;100792.28;4932556;29;20098;-68
2021/07/31 01:27:42;;;;;;;2.35;1.27;;;;;;;22.22;61.66;100788.78;4950153;29;20107;-68
2021/07/31 01:30:09;;;;;;;1.48;1.10;;;;;;;22.22;61.63;100786.13;4950583;29;20043;-68
2021/07/31 01:32:35;;;;;;;1.88;1.23;;;;;;;22.22;61.54;100791.47;4934466;29;20047;-68
2021/07/31 01:35:00;;;;;;;2.13;1.20;;;;;;;22.21;61.58;100787.97;4937357;29;20039;-68
2021/07/31 01:37:26;;;;;;;2.47;1.35;;;;;;;22.20;61.19;100786.34;4953648;28;20035;-68
2021/07/31 01:39:51;;;;;;;1.83;1.30;;;;;;;22.21;61.33;100781.81;4953146;29;20043;-68
2021/07/31 01:42:18;;;;;;;1.48;0.93;;;;;;;22.21;61.52;100781.81;4953692;29;20086;-68
2021/07/31 01:44:44;;;;;;;1.70;1.10;;;;;;;22.22;61.09;100775.44;4953058;29;20050;-68
2021/07/31 01:47:10;;;;;;;1.90;1.30;;;;;;;22.21;61.20;100771.13;4954266;29;20046;-68
2021/07/31 01:49:35;;;;;;;2.58;1.27;;;;;;;22.20;61.13;100777.50;4953302;29;20114;-68
2021/07/31 01:52:01;;;;;;;2.60;1.60;;;;;;;22.20;61.43;100774.84;4954183;29;20473;-68
2021/07/31 01:54:26;;;;;;;2.25;1.35;;;;;;;22.19;61.57;100771.34;4935626;29;20118;-68
2021/07/31 01:56:52;;;;;;;1.20;0.88;;;;;;;22.20;61.25;100769.50;4953693;28;20726;-68
2021/07/31 01:59:17;;;;;;;2.03;1.20;;;;;;;22.19;61.30;100768.66;4953939;29;20043;-68
2021/07/31 02:01:43;;;;;;;1.30;1.00;;;;;;;22.20;61.32;100764.16;4933873;28;20035;-70
2021/07/31 02:04:08;;;;;;;1.48;1.10;;;;;;;22.20;61.36;100772.97;4953266;28;20038;-67
2021/07/31 02:06:34;;;;;;;1.75;1.20;;;;;;;22.18;61.63;100772.38;4953956;28;20066;-67
2021/07/31 02:09:00;;;;;;;3.17;1.30;;;;;;;22.19;61.44;100768.66;4952765;28;20054;-67
2021/07/31 02:11:25;;;;;;;1.90;1.25;;;;;;;22.19;61.76;100773.19;4953850;28;20445;-69
2021/07/31 02:13:51;;;;;;;1.88;1.13;;;;;;;22.19;61.30;100779.34;4952832;28;20043;-67
2021/07/31 02:16:24;;;;;;;1.63;1.30;;;;;;;22.17;61.19;100775.28;4953390;28;20043;-68
2021/07/31 02:18:50;;;;;;;1.63;1.10;;;;;;;22.19;61.51;100771.34;4952712;28;20042;-68
2021/07/31 02:21:15;;;;;;;1.73;1.30;;;;;;;22.19;61.36;100775.88;4953036;28;20468;-67
2021/07/31 02:23:41;;;;;;;1.70;1.08;;;;;;;22.18;61.44;100768.88;4952346;28;20063;-68
2021/07/31 02:26:06;;;;;;;2.50;1.10;;;;;;;22.18;61.31;100772.38;4953439;28;20393;-67
2021/07/31 02:28:31;;;;;;;3.17;1.20;;;;;;;22.17;61.41;100776.09;4953051;28;20501;-68
2021/07/31 02:30:57;;;;;;;1.85;1.15;;;;;;;22.18;61.35;100772.38;4956002;28;20760;-68
2021/07/31 02:33:23;;;;;;;2.08;1.40;;;;;;;22.18;61.52;100772.38;4971176;28;20038;-68
2021/07/31 02:35:48;;;;;;;1.98;1.20;;;;;;;22.18;61.29;100775.06;4968972;28;20035;-68
2021/07/31 02:38:14;;;;;;;2.00;1.17;;;;;;;22.18;61.51;100768.88;4953111;29;20074;-67
2021/07/31 02:40:39;;;;;;;2.58;1.40;;;;;;;22.18;61.26;100768.88;4935061;29;20126;-67
2021/07/31 02:43:05;;;;;;;2.85;1.30;;;;;;;22.17;61.15;100765.41;4952189;28;20031;-68
2021/07/31 02:45:30;;;;;;;1.90;0.98;;;;;;;22.18;61.20;100771.56;4952549;28;20779;-67
2021/07/31 02:47:56;;;;;;;1.40;1.00;;;;;;;22.17;61.56;100772.59;4952489;28;20039;-68
2021/07/31 02:50:21;;;;;;;1.90;1.30;;;;;;;22.17;61.38;100778.75;4952721;28;20477;-68
2021/07/31 02:52:47;;;;;;;1.70;1.17;;;;;;;22.17;61.57;100778.75;4952546;28;20035;-68
2021/07/31 02:55:13;;;;;;;2.42;1.13;;;;;;;22.17;61.23;100786.78;4952540;28;20054;-68
2021/07/31 02:57:38;;;;;;;1.75;1.10;;;;;;;22.16;61.19;100779.78;4952786;28;20043;-68
2021/07/31 03:00:06;;;;;;;2.58;1.35;;;;;;;22.17;61.30;100772.59;4951251;28;20469;-68
2021/07/31 03:02:31;;;;;;;2.13;1.25;;;;;;;22.16;61.54;100778.97;4953562;28;20089;-68
2021/07/31 03:04:57;;;;;;;2.15;1.30;;;;;;;22.15;61.10;100772.81;4964333;28;20466;-68
2021/07/31 03:07:22;;;;;;;2.17;1.23;;;;;;;22.16;61.13;100769.09;4953533;28;20369;-68
2021/07/31 03:09:48;;;;;;;1.92;1.00;;;;;;;22.15;61.18;100777.34;4952611;28;20043;-68
2021/07/31 03:12:14;;;;;;;2.10;1.40;;;;;;;22.16;61.10;100773.63;4953184;28;20042;-68
2021/07/31 03:14:40;;;;;;;2.35;1.33;;;;;;;22.15;61.08;100770.16;4952012;29;20067;-68
2021/07/31 03:17:05;;;;;;;1.83;1.10;;;;;;;22.15;60.98;100769.31;4937015;28;20073;-68
2021/07/31 03:19:31;;;;;;;2.13;1.20;;;;;;;22.15;61.13;100772.00;4958595;28;20043;-68
2021/07/31 03:21:56;;;;;;;1.23;1.02;;;;;;;22.15;61.36;100766.66;4960662;28;20358;-68
2021/07/31 03:24:22;;;;;;;2.72;1.02;;;;;;;22.15;61.06;100766.66;4964070;28;20054;-68
2021/07/31 03:26:47;;;;;;;2.45;1.40;;;;;;;22.14;61.26;100765.84;4958712;28;20122;-67
2021/07/31 03:29:13;;;;;;;1.40;1.10;;;;;;;22.14;61.38;100765.84;4946131;28;20325;-68
2021/07/31 03:31:38;;;;;;;1.38;1.02;;;;;;;22.14;61.36;100763.16;4960296;28;20031;-68
2021/07/31 03:34:04;;;;;;;1.13;0.88;;;;;;;22.14;61.09;100765.84;4961749;28;20039;-68
2021/07/31 03:36:29;;;;;;;2.33;1.20;;;;;;;22.13;61.08;100769.53;4962918;28;20117;-69
2021/07/31 03:38:54;;;;;;;2.15;1.23;;;;;;;22.13;61.15;100769.53;4959731;28;20045;-68
2021/07/31 03:41:20;;;;;;;1.95;1.20;;;;;;;22.14;61.18;100767.69;4965803;28;20039;-68
2021/07/31 03:43:45;;;;;;;1.63;1.00;;;;;;;22.13;60.74;100766.88;4959709;28;20035;-67
2021/07/31 03:46:11;;;;;;;2.25;1.20;;;;;;;22.14;61.01;100765.00;4964084;28;20037;-68
2021/07/31 03:48:36;;;;;;;1.45;1.13;;;;;;;22.13;61.13;100756.19;4961681;28;20030;-68
2021/07/31 03:51:03;;;;;;;1.88;1.05;;;;;;;22.13;61.10;100761.53;4961748;28;20038;-68
2021/07/31 03:53:28;;;;;;;2.08;1.40;;;;;;;22.13;60.74;100764.19;4945893;28;20488;-69
2021/07/31 03:55:53;;;;;;;1.27;0.90;;;;;;;22.13;60.95;100761.53;4958819;28;20047;-68
2021/07/31 03:58:19;;;;;;;1.70;1.10;;;;;;;22.12;60.93;100757.22;4964282;28;20451;-68
2021/07/31 04:00:44;;;;;;;1.70;1.30;;;;;;;22.13;61.12;100763.38;4959407;28;20094;-68
2021/07/31 04:03:11;;;;;;;1.70;1.10;;;;;;;22.13;60.98;100755.38;4962741;28;20448;-68
2021/07/31 04:05:40;;;;;;;1.60;0.98;;;;;;;22.13;61.20;100764.19;4960523;28;20070;-68
2021/07/31 04:08:06;;;;;;;2.95;1.27;;;;;;;22.12;61.14;100757.22;4960879;28;20030;-68
2021/07/31 04:10:32;;;;;;;1.80;1.17;;;;;;;22.13;61.21;100760.72;4941194;29;20091;-68
2021/07/31 04:12:58;;;;;;;1.77;1.17;;;;;;;22.13;61.16;100756.19;4951030;28;20039;-68
2021/07/31 04:15:23;;;;;;;1.67;1.10;;;;;;;22.11;61.02;100759.06;4950264;28;20118;-68
2021/07/31 04:17:49;;;;;;;1.42;1.02;;;;;;;22.11;61.19;100761.75;4950945;28;20123;-68
2021/07/31 04:20:14;;;;;;;1.55;1.13;;;;;;;22.11;61.06;100756.41;4950535;28;20126;-68
2021/07/31 04:22:41;;;;;;;1.83;1.15;;;;;;;22.11;61.33;100756.41;4950979;28;20055;-68
2021/07/31 04:25:07;;;;;;;1.80;1.20;;;;;;;22.11;61.31;100751.06;4950773;28;20032;-68
2021/07/31 04:27:33;;;;;;;2.20;0.98;;;;;;;22.11;60.94;100750.25;4950726;28;20047;-69
2021/07/31 04:30:00;;;;;;;2.42;0.98;;;;;;;22.11;60.89;100750.25;4951154;29;20039;-67
2021/07/31 04:32:25;;;;;;;1.60;1.20;;;;;;;22.10;61.29;100752.09;4950708;29;20485;-68
2021/07/31 04:34:51;;;;;;;1.60;1.10;;;;;;;22.09;61.26;100742.44;4950685;29;20042;-68
2021/07/31 04:37:16;;;;;;;1.98;1.10;;;;;;;22.11;61.20;100750.25;4950735;29;20040;-68
2021/07/31 04:39:42;;;;;;;1.95;1.30;;;;;;;22.09;60.79;100747.78;4949978;28;20038;-68
2021/07/31 04:42:07;;;;;;;2.10;1.10;;;;;;;22.10;61.15;100753.94;4951085;29;20035;-68
2021/07/31 04:44:33;;;;;;;1.73;1.10;;;;;;;22.10;61.17;100746.75;4950510;29;20456;-67
2021/07/31 04:46:59;;;;;;;1.33;1.05;;;;;;;22.09;61.20;100750.47;4951029;28;20031;-68
2021/07/31 04:49:24;;;;;;;3.65;0.98;;;;;;;22.09;60.88;100749.59;4950832;28;20667;-67
2021/07/31 04:51:50;;;;;;;1.73;1.10;;;;;;;22.09;61.29;100747.78;4950573;29;20039;-68
2021/07/31 04:54:15;;;;;;;1.50;1.10;;;;;;;22.10;61.07;100756.63;4949500;28;20035;-68
2021/07/31 04:56:41;;;;;;;1.38;1.10;;;;;;;22.09;61.11;100750.47;4933415;29;20555;-68
2021/07/31 04:59:07;;;;;;;1.60;1.00;;;;;;;22.09;60.88;100757.63;4950785;29;20434;-67
2021/07/31 05:01:32;;;;;;;1.45;1.08;;;;;;;22.09;61.12;100752.28;4949212;28;20090;-68
2021/07/31 05:03:58;;;;;;;2.25;1.05;;;;;;;22.08;60.71;100754.13;4950325;28;20074;-69
2021/07/31 05:06:23;;;;;;;1.83;1.02;;;;;;;22.08;60.67;100751.47;4950003;28;20043;-68
2021/07/31 05:08:49;;;;;;;1.38;1.00;;;;;;;22.08;60.90;100751.47;4949830;29;20035;-68
2021/07/31 05:11:18;;;;;;;1.92;1.00;;;;;;;22.08;60.98;100754.13;4954433;28;20035;-68
2021/07/31 05:13:43;;;;;;;2.00;1.23;;;;;;;22.08;60.73;100754.13;4949869;28;20126;-68
2021/07/31 05:16:13;;;;;;;1.58;1.20;;;;;;;22.07;60.78;100757.03;4950925;28;20438;-68
2021/07/31 05:18:39;;;;;;;1.40;1.10;;;;;;;22.07;60.82;100765.84;4949592;28;20103;-67
2021/07/31 05:21:07;;;;;;;1.25;1.10;;;;;;;22.08;61.20;100758.66;4944862;29;20477;-68
2021/07/31 05:23:32;;;;;;;1.65;0.98;;;;;;;22.07;60.78;100763.19;4949087;28;20047;-68
2021/07/31 05:25:58;;;;;;;1.90;1.00;;;;;;;22.06;61.03;100761.53;4950583;28;20046;-67
2021/07/31 05:28:23;;;;;;;2.05;1.10;;;;;;;22.07;60.70;100765.03;4950671;28;20050;-68
2021/07/31 05:30:48;;;;;;;1.77;1.15;;;;;;;22.06;60.49;100764.22;4932821;29;20035;-68
2021/07/31 05:33:14;;;;;;;1.38;1.05;;;;;;;22.06;60.72;100760.72;4950318;28;20043;-68
2021/07/31 05:35:40;;;;;;;1.52;1.17;;;;;;;22.07;60.75;100762.38;4950516;28;20729;-67
2021/07/31 05:38:05;;;;;;;1.80;1.20;;;;;;;22.06;60.64;100758.06;4949719;28;20085;-68
2021/07/31 05:40:30;;;;;;;1.27;0.95;;;;;;;22.05;61.03;100765.25;4949578;28;20027;-70
2021/07/31 05:42:56;;;;;;;1.45;0.93;;;;;;;22.05;60.84;100765.25;4950358;28;20054;-68
2021/07/31 05:45:21;;;;;;;1.80;1.10;;;;;;;22.05;60.88;100757.25;4950340;28;20031;-68
2021/07/31 05:47:47;;;;;;;2.15;1.33;;;;;;;22.06;60.86;100758.06;4949796;28;20039;-68
2021/07/31 05:50:13;;;;;;;1.73;1.08;;;;;;;22.05;60.46;100762.59;4950188;28;20131;-68
2021/07/31 05:52:38;;;;;;;1.50;1.00;;;;;;;;;;4949732;28;20047;-68
2021/07/31 05:55:05;;;;;;;1.02;0.82;;;;;;;22.05;60.84;100757.25;4949454;28;20046;-68
2021/07/31 05:57:31;;;;;;;1.88;1.25;;;;;;;22.04;60.81;100760.91;4932661;28;20039;-69
2021/07/31 05:59:57;;;;;;;1.77;0.88;;;;;;;22.04;60.71;100754.75;4950095;28;20042;-67
2021/07/31 06:02:22;;;;;;;1.73;0.98;;;;;;;22.04;60.65;100757.44;4943555;28;20032;-68
2021/07/31 06:04:48;;;;;;;2.78;1.10;;;;;;;;;;4949924;28;20039;-68
2021/07/31 06:07:13;;;;;;;1.88;1.10;;;;;;;22.04;60.81;100760.91;4950301;28;20043;-68
2021/07/31 06:09:39;;;;;;;1.90;1.10;;;;;;;;;;4950416;28;20389;-67
2021/07/31 06:12:06;;;;;;;1.55;1.00;;;;;;;22.04;60.89;100760.91;4951549;28;20035;-69
2021/07/31 06:14:36;;;;;;;1.40;1.00;;;;;;;22.02;60.88;100762.97;4950078;28;20049;-68
2021/07/31 06:17:03;;;;;;;2.28;1.00;;;;;;;22.04;60.97;100757.44;4932087;29;21275;-68
2021/07/31 06:19:29;;;;;;;2.63;1.13;;;;;;;;;;4950162;28;20035;-68
2021/07/31 06:21:55;;;;;;;1.92;1.00;;;;;;;22.03;60.62;100769.16;4953023;28;20676;-68
2021/07/31 06:24:21;;;;;;;1.60;0.95;;;;;;;22.03;60.75;100769.97;4952530;28;20130;-68
2021/07/31 06:26:46;;;;;;;1.40;0.90;;;;;;;22.03;60.64;100774.50;4953504;28;20059;-68
2021/07/31 06:29:12;;;;;;;1.58;1.10;;;;;;;22.04;60.93;100776.13;4952787;28;20031;-68
2021/07/31 06:31:37;;;;;;;2.42;1.30;;;;;;;22.03;60.46;100787.84;4953690;28;20118;-68
2021/07/31 06:34:03;;;;;;;1.83;1.20;;;;;;;22.02;60.73;100779.00;4953099;28;20377;-67
2021/07/31 06:36:29;;;;;;;1.48;1.05;;;;;;;22.02;60.73;100787.03;4953212;28;20397;-68
2021/07/31 06:38:54;;;;;;;1.92;1.00;;;;;;;22.04;60.80;100784.13;4951840;28;20040;-68
2021/07/31 06:41:19;;;;;;;1.92;1.10;;;;;;;22.02;60.38;100787.03;4936556;29;20043;-67
2021/07/31 06:43:45;;;;;;;1.90;1.10;;;;;;;22.03;60.60;100793.19;4952678;28;20039;-68
2021/07/31 06:46:12;;;;;;;1.63;1.00;;;;;;;22.02;60.90;100789.69;4952887;28;20035;-68
2021/07/31 06:48:37;;;;;;;1.33;0.95;;;;;;;22.03;60.73;100795.84;4952569;28;20099;-68
2021/07/31 06:51:03;;;;;;;2.15;1.10;;;;;;;22.02;60.38;100794.22;4962818;28;20042;-68
2021/07/31 06:53:28;;;;;;;1.35;0.90;;;;;;;22.01;60.42;100796.06;4964700;28;20035;-68
2021/07/31 06:55:58;;;;;;;3.85;1.15;;;;;;;22.00;60.73;100790.94;4972127;28;20458;-71
2021/07/31 06:58:23;;;;;;;4.05;1.42;;;;;;;22.00;60.37;100807.78;4966957;28;20459;-68
2021/07/31 07:00:49;;;;;;;1.75;1.02;;;;;;;22.01;60.67;100800.59;4952887;28;20047;-67
2021/07/31 07:03:14;;;;;;;4.05;1.65;;;;;;;21.99;60.67;100797.31;4957120;28;20062;-67
2021/07/31 07:05:40;;;;;;;4.10;1.50;;;;;;;21.98;60.63;100799.19;4961582;28;20046;-68
2021/07/31 07:08:05;;;;;;;3.47;1.40;;;;;;;21.99;60.46;100805.34;4962532;28;20034;-67
2021/07/31 07:10:32;;;;;;;4.78;1.73;;;;;;;21.97;60.54;100802.88;4955880;28;20035;-66
2021/07/31 07:12:58;;;;;;;5.35;1.60;;;;;;;21.96;60.85;100811.09;4953191;28;20031;-67
2021/07/31 07:15:27;;;;;;;4.38;2.03;;;;;;;21.97;60.80;100804.72;4953083;28;20552;-67
2021/07/31 07:17:53;;;;;;;3.35;1.75;;;;;;;21.97;60.64;100804.72;4949869;29;20028;-66
2021/07/31 07:20:18;;;;;;;4.35;1.95;;;;;;;21.97;60.62;100812.75;4953191;28;20118;-68
2021/07/31 07:22:44;;;;;;;5.78;1.98;;;;;;;21.97;60.58;100815.41;4950861;28;20512;-66
2021/07/31 07:25:09;;;;;;;3.72;2.20;;;;;;;21.97;60.58;100810.06;4950114;28;20519;-67
2021/07/31 07:27:35;;;;;;;3.22;2.20;;;;;;;21.96;60.16;100817.28;4955177;28;20502;-68
2021/07/31 07:30:00;;;;;;;6.68;2.35;;;;;;;21.96;60.47;100809.25;4961925;28;20042;-67
2021/07/31 07:32:26;;;;;;;5.03;2.17;;;;;;;21.96;60.45;100811.09;4957469;28;20346;-68
2021/07/31 07:34:51;;;;;;;3.45;2.15;;;;;;;21.95;60.80;100818.31;4954240;28;20126;-68
2021/07/31 07:37:17;;;;;;;4.30;2.60;;;;;;;21.96;60.86;100819.13;4954559;28;20066;-67
2021/07/31 07:39:42;;;;;;;7.00;2.20;;;;;;;21.96;60.73;100814.59;4946290;28;20050;-69
2021/07/31 07:42:08;;;;;;;4.50;2.70;;;;;;;21.96;60.90;100819.13;4957053;28;20481;-68
2021/07/31 07:44:34;;;;;;;5.93;2.83;;;;;;;21.95;60.52;100810.28;4953370;28;20044;-67
2021/07/31 07:47:00;;;;;;;6.25;3.20;;;;;;;21.95;60.55;100804.13;4952897;28;20067;-67
2021/07/31 07:49:25;;;;;;;7.47;3.22;;;;;;;21.95;60.51;100809.47;4953510;28;20042;-67
2021/07/31 07:51:51;;;;;;;4.85;2.95;;;;;;;21.95;60.40;100810.28;4952733;28;20067;-66
2021/07/31 07:54:16;;;;;;;6.00;2.97;;;;;;;21.96;59.95;100811.09;4952569;28;20139;-64
2021/07/31 07:56:42;;;;;;;5.82;3.38;;;;;;;21.95;60.10;100812.97;4953132;28;20374;-67
2021/07/31 07:59:07;;;;;;;5.97;2.88;;;;;;;21.96;59.81;100811.94;4952302;28;20039;-65
2021/07/31 08:01:34;;;;;;;4.75;3.03;;;;;;;21.96;60.01;100819.94;4946811;28;20473;-67
2021/07/31 08:04:01;;;;;;;10.55;3.50;;;;;;;21.96;59.86;100819.94;4952291;28;20066;-68
2021/07/31 08:06:27;;;;;;;9.50;3.15;;;;;;;21.96;59.70;100822.63;4953218;28;20058;-68
2021/07/31 08:08:52;;;;;;;7.20;3.38;;;;;;;21.96;59.98;100825.28;4951157;28;20062;-68
2021/07/31 08:11:17;;;;;;;5.20;3.35;;;;;;;21.96;59.63;100824.47;4955510;28;20409;-70
2021/07/31 08:13:43;;;;;;;6.90;3.40;;;;;;;21.95;59.58;100820.97;4952126;28;20415;-67
2021/07/31 08:16:10;;;;;;;6.47;3.10;;;;;;;21.92;59.30;100828.56;4950743;28;20146;-70
2021/07/31 08:18:35;;;;;;;7.40;3.65;;;;;;;21.91;59.47;100825.06;4948623;28;20039;-68
2021/07/31 08:21:01;;;;;;;6.13;3.35;;;;;;;21.90;59.14;100827.97;4950758;28;20038;-69
2021/07/31 08:23:26;;;;;;;8.57;3.72;;;;;;;21.89;59.16;100832.47;4948102;28;20551;-69
2021/07/31 08:25:52;;;;;;;5.85;3.50;;;;;;;21.88;59.21;100830.03;4952187;28;20481;-67
2021/07/31 08:28:17;;;;;;;5.80;3.90;;;;;;;21.87;58.73;100833.72;4949654;28;20075;-66
2021/07/31 08:30:43;;;;;;;5.47;3.35;;;;;;;21.85;58.98;100835.78;4954094;28;20046;-67
2021/07/31 08:33:08;;;;;;;7.40;3.88;;;;;;;21.85;58.52;100827.78;4951416;28;20046;-64
2021/07/31 08:35:33;;;;;;;7.53;3.72;;;;;;;21.82;58.55;100829.03;4934062;28;20043;-66
2021/07/31 08:37:59;;;;;;;8.98;3.67;;;;;;;21.80;58.50;100826.56;4932661;29;20035;-68
2021/07/31 08:40:25;;;;;;;10.32;4.10;;;;;;;21.78;58.57;100830.50;4950110;28;20037;-65
2021/07/31 08:42:51;;;;;;;7.20;4.45;;;;;;;21.77;58.83;100831.50;4949818;28;20111;-67
2021/07/31 08:45:17;;;;;;;7.80;4.53;;;;;;;21.73;59.00;100832.94;4951017;28;20117;-67
2021/07/31 08:47:45;;;;;;;7.03;4.30;;;;;;;21.71;59.09;100837.69;4951238;28;20031;-67
2021/07/31 08:50:11;;;;;;;8.30;4.15;;;;;;;21.71;58.84;100835.03;4950114;28;20031;-68
2021/07/31 08:52:39;;;;;;;6.63;3.90;;;;;;;21.72;59.05;100831.31;4960662;28;20114;-67
2021/07/31 08:55:05;;;;;;;5.97;3.78;;;;;;;21.72;58.96;100837.47;4963535;28;20479;-68
2021/07/31 08:57:31;;;;;;;7.32;3.65;;;;;;;21.70;58.53;100833.38;4958663;28;20512;-67
2021/07/31 08:59:56;;;;;;;7.35;3.63;;;;;;;21.71;58.67;100835.03;4934157;28;20043;-69
2021/07/31 09:02:22;;;;;;;6.93;3.90;;;;;;;21.71;58.28;100840.34;4947080;29;20416;-68
2021/07/31 09:04:52;;;;;;;5.35;4.05;;;;;;;21.67;58.45;100839.16;4947676;29;20046;-70
2021/07/31 09:07:17;;;;;;;8.05;3.78;;;;;;;21.66;58.29;100842.84;4947128;29;20039;-68
2021/07/31 09:09:43;;;;;;;4.97;3.50;;;;;;;21.65;58.49;100844.69;4939339;29;20454;-68
2021/07/31 09:12:10;;;;;;;9.07;4.25;;;;;;;21.64;58.30;100840.38;4945260;28;20123;-69
2021/07/31 09:14:36;;;;;;;8.77;3.63;;;;;;;21.65;58.50;100836.69;4947327;28;20792;-67
2021/07/31 09:17:03;;;;;;;6.32;3.90;;;;;;;21.65;58.29;100839.34;4946489;28;20535;-68
2021/07/31 09:19:29;;;;;;;10.50;3.50;;;;;;;21.65;58.42;100835.88;4948253;28;20098;-67
2021/07/31 09:22:07;;;;;;;5.50;3.60;;;;;;;21.61;58.14;100840.78;4945485;28;20048;-68
2021/07/31 09:24:33;;;;;;;9.05;3.75;;;;;;;21.64;58.38;100845.72;4946321;29;20110;-68
2021/07/31 09:26:58;;;;;;;8.18;3.50;;;;;;;21.65;58.43;100841.22;4947334;29;20035;-69
2021/07/31 09:29:36;;;;;;;10.15;3.58;;;;;;;21.64;58.60;100840.38;4945896;29;20536;-69
2021/07/31 09:32:06;;;;;;;9.05;3.30;;;;;;;21.63;58.55;100840.59;4946786;29;20098;-70
2021/07/31 09:34:34;;;;;;;5.78;3.28;;;;;;;21.65;58.41;100846.53;4946291;29;20098;-67
2021/07/31 09:37:23;;;;;;;7.32;3.35;;;;;;;21.62;58.52;100844.28;4947093;29;20114;-68
2021/07/31 09:40:06;;;;;;;6.20;3.45;;;;;;;21.60;58.40;100843.66;4946484;29;20035;-69
2021/07/31 09:42:33;;;;;;;4.88;2.85;;;;;;;21.61;58.25;100837.28;4946885;29;20035;-69
2021/07/31 09:45:04;;;;;;;8.40;3.10;;;;;;;21.58;58.87;100843.88;4946376;29;20531;-67
2021/07/31 09:47:29;;;;;;;8.25;2.78;;;;;;;21.58;59.29;100848.41;4946991;29;20086;-67
2021/07/31 09:49:57;;;;;;;6.45;3.20;;;;;;;21.60;58.94;100841.00;4947394;29;20043;-69
2021/07/31 09:52:24;;;;;;;5.93;2.88;;;;;;;21.61;59.25;100840.78;4947093;29;20169;-66
2021/07/31 09:54:50;;;;;;;7.78;3.10;;;;;;;21.63;59.07;100838.75;4949362;29;20035;-67
2021/07/31 09:57:17;;;;;;;9.40;3.08;;;;;;;21.62;59.50;100839.78;4950931;29;20035;-71
2021/07/31 09:59:52;;;;;;;4.53;2.88;;;;;;;21.62;59.38;100841.59;4950703;29;20031;-69
2021/07/31 10:02:19;;;;;;;5.95;2.70;;;;;;;21.63;59.15;100843.28;4948415;29;20050;-69
2021/07/31 10:04:46;;;;;;;6.85;3.17;;;;;;;21.63;59.13;100841.41;4950083;29;20039;-67
2021/07/31 10:07:13;;;;;;;5.53;3.03;;;;;;;21.64;59.68;100835.06;4950163;29;20832;-68
2021/07/31 10:09:45;;;;;;;8.48;2.90;;;;;;;21.64;59.58;100848.41;4949298;29;20051;-67
2021/07/31 10:12:14;;;;;;;7.07;3.10;;;;;;;21.63;59.46;100843.28;4952043;28;20041;-66
2021/07/31 10:14:40;;;;;;;5.68;2.92;;;;;;;21.61;59.32;100842.63;4952522;28;20035;-67
2021/07/31 10:17:06;;;;;;;7.13;3.03;;;;;;;21.61;59.41;100845.31;4953591;28;20042;-66
2021/07/31 10:19:43;;;;;;;10.23;3.42;;;;;;;21.55;59.61;100844.31;4959525;28;20038;-67
2021/07/31 10:22:09;;;;;;;6.95;2.80;;;;;;;21.56;59.17;100847.78;4949391;28;20129;-68
2021/07/31 10:24:57;;;;;;;4.82;2.97;;;;;;;21.51;59.63;100851.09;4948542;28;20066;-66
2021/07/31 10:27:24;;;;;;;6.53;3.40;;;;;;;21.56;59.55;100850.47;4945330;28;20046;-66
2021/07/31 10:29:54;;;;;;;6.68;3.47;;;;;;;21.56;59.67;100847.78;4949480;28;20091;-68
2021/07/31 10:32:19;;;;;;;6.95;3.00;;;;;;;21.59;59.48;100850.03;4955124;28;20032;-66
2021/07/31 10:35:00;;;;;;;4.55;2.80;;;;;;;21.59;59.29;100840.19;4956043;28;20027;-67
2021/07/31 10:37:28;;;;;;;6.65;2.80;;;;;;;21.62;59.31;100841.59;4952724;28;20039;-67
2021/07/31 10:40:04;;;;;;;6.25;3.08;;;;;;;21.62;59.41;100841.59;4953113;28;20078;-67
2021/07/31 10:42:52;;;;;;;5.25;2.65;;;;;;;21.57;59.70;100852.09;4953623;28;20035;-67
2021/07/31 10:45:17;;;;;;;4.80;2.70;;;;;;;21.61;59.33;100853.31;4941407;29;20155;-68
2021/07/31 10:47:46;;;;;;;5.22;2.75;;;;;;;21.61;59.62;100845.31;4953597;28;20715;-67
2021/07/31 10:50:24;;;;;;;5.13;3.00;;;;;;;21.57;59.51;100844.91;4934070;29;20136;-67
2021/07/31 10:52:55;;;;;;;6.97;2.80;;;;;;;21.60;59.61;100844.47;4951610;28;20035;-67
2021/07/31 10:55:47;;;;;;;5.60;3.00;;;;;;;21.58;59.50;100849.22;4951317;28;20024;-67
2021/07/31 10:58:16;;;;;;;7.50;3.70;;;;;;;21.60;59.30;100849.81;4952153;28;20035;-68
2021/07/31 11:00:53;;;;;;;4.93;2.60;;;;;;;21.61;59.42;100850.63;4947393;28;20024;-69
2021/07/31 11:03:20;;;;;;;4.50;2.17;;;;;;;21.58;59.38;100845.72;4951788;28;20035;-69
2021/07/31 11:05:49;;;;;;;3.40;2.05;;;;;;;21.58;59.47;100846.53;4952365;28;20126;-69
2021/07/31 11:08:19;;;;;;;4.53;2.38;;;;;;;21.59;59.34;100839.34;4952676;28;20062;-69
2021/07/31 11:10:55;;;;;;;4.40;2.40;;;;;;;21.56;59.36;100837.13;4938806;29;20083;-68
2021/07/31 11:13:20;;;;;;;3.97;2.83;;;;;;;21.58;59.25;100841.22;4951926;28;20158;-68
2021/07/31 11:16:04;;;;;;;2.88;2.10;;;;;;;21.55;59.43;100841.63;4952842;28;20142;-68
2021/07/31 11:18:35;;;;;;;4.55;2.15;;;;;;;21.58;59.44;100835.03;4952305;28;20476;-69
2021/07/31 11:21:16;;;;;;;5.75;2.25;;;;;;;21.59;59.35;100834.00;4952393;28;20477;-69
2021/07/31 11:23:58;;;;;;;4.18;2.13;;;;;;;21.60;59.23;100838.31;4951169;28;20063;-69